createdAt,value
2022-10-16T00:01:41.695Z,2.43
2022-10-16T00:04:09.599Z,2.63
2022-10-16T00:06:36.596Z,2.63
2022-10-16T00:09:03.873Z,2.93
2022-10-16T00:11:34.571Z,3.10
2022-10-16T00:14:04.361Z,3.10
2022-10-16T00:16:32.367Z,2.77
2022-10-16T00:18:59.606Z,3.40
2022-10-16T00:21:29.909Z,3.00
2022-10-16T00:24:07.204Z,3.93
2022-10-16T00:26:37.206Z,3.80
2022-10-16T00:29:05.527Z,3.97
2022-10-16T00:31:32.911Z,3.90
2022-10-16T00:34:01.379Z,3.83
2022-10-16T00:36:28.784Z,3.97
2022-10-16T00:41:33.358Z,4.30
2022-10-16T00:44:04.282Z,4.23
2022-10-16T00:46:43.493Z,4.30
2022-10-16T00:49:17.661Z,5.03
2022-10-16T00:51:54.665Z,4.70
2022-10-16T00:54:29.449Z,5.10
2022-10-16T00:57:01.614Z,5.50
2022-10-16T00:59:35.517Z,5.67
2022-10-16T01:02:05.755Z,5.60
2022-10-16T01:04:43.648Z,6.10
2022-10-16T01:07:47.024Z,5.70
2022-10-16T01:10:41.068Z,7.37
2022-10-16T01:13:12.886Z,6.70
2022-10-16T01:15:52.004Z,6.27
2022-10-16T01:18:43.007Z,5.93
2022-10-16T01:21:28.930Z,6.10
2022-10-16T01:24:16.709Z,6.30
2022-10-16T01:26:59.055Z,6.33
2022-10-16T01:29:50.783Z,6.40
2022-10-16T01:32:31.841Z,7.13
2022-10-16T01:35:19.851Z,7.23
2022-10-16T01:38:09.442Z,7.27
2022-10-16T01:40:40.757Z,7.07
2022-10-16T01:43:15.903Z,6.83
2022-10-16T01:45:45.019Z,6.90
2022-10-16T01:48:17.922Z,6.80
2022-10-16T01:51:09.975Z,6.60
2022-10-16T01:53:38.206Z,7.00
2022-10-16T01:56:09.693Z,7.00
2022-10-16T01:58:43.545Z,8.17
2022-10-16T02:01:14.391Z,7.27
2022-10-16T02:03:44.306Z,7.43
2022-10-16T02:06:11.447Z,8.03
2022-10-16T02:08:40.115Z,8.00
2022-10-16T02:11:07.491Z,8.53
2022-10-16T02:13:56.910Z,9.27
2022-10-16T02:16:41.227Z,9.00
2022-10-16T02:19:14.288Z,9.33
2022-10-16T02:21:51.592Z,8.03
2022-10-16T02:24:55.985Z,8.87
2022-10-16T02:27:55.258Z,8.87
2022-10-16T02:30:27.200Z,8.80
2022-10-16T02:32:54.658Z,7.93
2022-10-16T02:35:23.489Z,8.37
2022-10-16T02:37:51.369Z,8.40
2022-10-16T02:40:21.572Z,8.70
2022-10-16T02:42:53.830Z,7.60
2022-10-16T02:45:23.482Z,7.93
2022-10-16T02:47:50.738Z,8.53
2022-10-16T02:50:18.029Z,8.13
2022-10-16T02:52:45.162Z,8.57
2022-10-16T02:55:12.128Z,7.77
2022-10-16T02:57:41.215Z,7.87
2022-10-16T03:00:14.816Z,8.20
2022-10-16T03:02:42.335Z,7.50
2022-10-16T03:05:10.615Z,8.10
2022-10-16T03:07:37.738Z,8.03
2022-10-16T03:10:05.341Z,7.37
2022-10-16T03:12:32.615Z,7.37
2022-10-16T03:14:59.631Z,7.10
2022-10-16T03:17:27.205Z,8.87
2022-10-16T03:19:54.374Z,8.00
2022-10-16T03:22:21.643Z,6.97
2022-10-16T03:24:48.619Z,7.87
2022-10-16T03:27:15.858Z,7.33
2022-10-16T03:29:42.771Z,7.40
2022-10-16T03:32:09.803Z,8.03
2022-10-16T03:34:36.745Z,6.93
2022-10-16T03:37:03.969Z,8.00
2022-10-16T03:39:30.930Z,6.70
2022-10-16T03:41:57.967Z,7.77
2022-10-16T03:44:24.930Z,7.30
2022-10-16T03:46:52.013Z,7.30
2022-10-16T03:49:18.954Z,8.30
2022-10-16T03:51:46.128Z,7.33
2022-10-16T03:54:13.167Z,7.10
2022-10-16T03:56:40.148Z,6.90
2022-10-16T03:59:07.069Z,7.47
2022-10-16T04:01:34.203Z,6.43
2022-10-16T04:04:01.366Z,7.30
2022-10-16T04:06:28.367Z,6.90
2022-10-16T04:08:55.444Z,6.00
2022-10-16T04:11:22.382Z,5.90
2022-10-16T04:13:49.590Z,7.17
2022-10-16T04:16:16.616Z,6.53
2022-10-16T04:18:43.608Z,6.00
2022-10-16T04:21:10.727Z,5.67
2022-10-16T04:23:37.757Z,6.83
2022-10-16T04:26:04.945Z,6.73
2022-10-16T04:28:31.922Z,6.47
2022-10-16T04:30:59.062Z,5.43
2022-10-16T04:33:26.009Z,5.90
2022-10-16T04:36:01.682Z,6.10
2022-10-16T04:38:29.022Z,6.20
2022-10-16T04:40:56.373Z,6.00
2022-10-16T04:43:24.574Z,5.77
2022-10-16T04:45:51.964Z,5.80
2022-10-16T04:48:19.699Z,6.30
2022-10-16T04:50:50.353Z,5.70
2022-10-16T04:53:19.994Z,6.07
2022-10-16T04:55:47.007Z,5.73
2022-10-16T04:58:14.050Z,5.27
2022-10-16T05:00:40.997Z,5.63
2022-10-16T05:03:09.854Z,5.30
2022-10-16T05:05:37.456Z,4.70
2022-10-16T05:08:04.963Z,5.13
2022-10-16T05:10:32.122Z,5.70
2022-10-16T05:12:59.220Z,4.70
2022-10-16T05:15:26.272Z,5.10
2022-10-16T05:17:56.954Z,6.10
2022-10-16T05:20:24.453Z,4.90
2022-10-16T05:22:51.426Z,5.00
2022-10-16T05:25:19.142Z,4.67
2022-10-16T05:27:49.500Z,4.57
2022-10-16T05:30:18.289Z,4.63
2022-10-16T05:32:52.227Z,5.00
2022-10-16T05:35:20.399Z,4.60
2022-10-16T05:37:48.156Z,3.97
2022-10-16T05:40:16.039Z,4.97
2022-10-16T05:42:43.050Z,4.37
2022-10-16T05:45:12.769Z,4.03
2022-10-16T05:47:40.267Z,3.87
2022-10-16T05:50:08.048Z,4.53
2022-10-16T05:52:35.058Z,4.20
2022-10-16T05:55:02.087Z,4.10
2022-10-16T05:57:29.360Z,4.27
2022-10-16T05:59:56.797Z,4.30
2022-10-16T06:02:24.013Z,4.13
2022-10-16T06:04:54.686Z,3.87
2022-10-16T06:07:23.013Z,3.93
2022-10-16T06:09:54.193Z,3.70
2022-10-16T06:12:21.516Z,3.73
2022-10-16T06:14:48.513Z,3.80
2022-10-16T06:17:16.088Z,4.30
2022-10-16T06:19:43.129Z,4.30
2022-10-16T06:22:10.261Z,3.43
2022-10-16T06:24:37.553Z,4.27
2022-10-16T06:27:05.882Z,3.70
2022-10-16T06:29:32.756Z,3.77
2022-10-16T06:31:59.828Z,3.70
2022-10-16T06:34:26.930Z,3.60
2022-10-16T06:36:54.021Z,3.33
2022-10-16T06:39:20.985Z,3.83
2022-10-16T06:41:48.065Z,4.37
2022-10-16T06:44:17.686Z,4.17
2022-10-16T06:46:44.614Z,4.00
2022-10-16T06:49:12.623Z,3.40
2022-10-16T06:51:43.238Z,3.30
2022-10-16T06:54:10.863Z,3.60
2022-10-16T06:56:38.516Z,2.80
2022-10-16T06:59:05.584Z,3.43
2022-10-16T07:01:33.368Z,2.60
2022-10-16T07:04:02.968Z,3.20
2022-10-16T07:06:34.415Z,3.07
2022-10-16T07:09:05.485Z,3.27
2022-10-16T07:11:32.629Z,3.50
2022-10-16T07:13:59.933Z,3.20
2022-10-16T07:16:29.974Z,2.73
2022-10-16T07:19:00.724Z,3.00
2022-10-16T07:21:38.015Z,2.50
2022-10-16T07:24:13.891Z,2.60
2022-10-16T07:26:41.979Z,2.20
2022-10-16T07:29:18.012Z,2.53
2022-10-16T07:31:46.163Z,2.23
2022-10-16T07:34:15.324Z,2.53
2022-10-16T07:39:14.728Z,2.33
2022-10-16T07:41:41.908Z,2.20
2022-10-16T07:44:09.452Z,2.50
2022-10-16T07:46:36.995Z,2.70
2022-10-16T07:49:04.604Z,2.20
2022-10-16T07:51:31.889Z,2.30
2022-10-16T07:54:01.744Z,2.03
2022-10-16T07:56:28.933Z,2.63
2022-10-16T07:58:57.266Z,2.27
2022-10-16T08:01:25.431Z,2.07
2022-10-16T08:03:53.130Z,2.40
2022-10-16T08:06:26.726Z,1.90
2022-10-16T08:08:56.808Z,2.07
2022-10-16T08:11:24.426Z,2.00
2022-10-16T08:13:51.660Z,2.20
2022-10-16T08:16:18.922Z,3.10
2022-10-16T08:18:46.032Z,2.30
2022-10-16T08:21:20.392Z,2.50
2022-10-16T08:23:54.594Z,2.57
2022-10-16T08:26:27.382Z,2.60
2022-10-16T08:28:55.542Z,3.10
2022-10-16T08:31:23.214Z,3.13
2022-10-16T08:33:50.331Z,3.43
2022-10-16T08:36:17.905Z,3.07
2022-10-16T08:38:45.258Z,3.10
2022-10-16T08:41:27.134Z,3.37
2022-10-16T08:44:34.581Z,3.87
2022-10-16T08:47:29.625Z,3.67
2022-10-16T08:50:02.450Z,3.00
2022-10-16T08:52:36.831Z,3.03
2022-10-16T08:55:05.486Z,3.37
2022-10-16T08:57:33.575Z,3.20
2022-10-16T09:00:14.104Z,3.40
2022-10-16T09:03:00.280Z,3.97
2022-10-16T09:05:49.118Z,3.77
2022-10-16T09:08:28.356Z,4.07
2022-10-16T09:11:27.744Z,4.33
2022-10-16T09:14:13.372Z,4.53
2022-10-16T09:16:48.805Z,4.70
2022-10-16T09:19:29.586Z,4.10
2022-10-16T09:21:57.571Z,5.03
2022-10-16T09:24:29.319Z,4.70
2022-10-16T09:26:56.372Z,3.73
2022-10-16T09:29:25.999Z,4.30
2022-10-16T09:31:56.022Z,3.80
2022-10-16T09:34:35.812Z,4.17
2022-10-16T09:37:10.725Z,4.40
2022-10-16T09:39:50.218Z,4.00
2022-10-16T09:42:34.251Z,3.73
2022-10-16T09:45:01.935Z,4.00
2022-10-16T09:47:31.299Z,3.70
2022-10-16T09:50:07.038Z,3.67
2022-10-16T09:52:34.747Z,3.50
2022-10-16T09:55:14.417Z,3.53
2022-10-16T09:57:55.308Z,3.20
2022-10-16T10:00:24.962Z,3.20
2022-10-16T10:05:29.700Z,3.03
2022-10-16T10:08:00.134Z,2.60
2022-10-16T10:10:33.128Z,2.90
2022-10-16T10:13:00.505Z,2.70
2022-10-16T10:15:34.683Z,2.90
2022-10-16T10:18:04.145Z,2.70
2022-10-16T10:20:39.111Z,2.50
2022-10-16T10:23:27.655Z,2.40
2022-10-16T10:26:19.697Z,2.40
2022-10-16T10:28:57.168Z,2.20
2022-10-16T10:31:48.454Z,1.90
2022-10-16T10:35:09.313Z,2.57
2022-10-16T10:38:04.912Z,2.37
2022-10-16T10:40:52.982Z,2.07
2022-10-16T10:44:17.078Z,1.63
2022-10-16T10:47:08.949Z,1.40
2022-10-16T10:50:19.234Z,1.70
2022-10-16T10:53:23.469Z,2.00
2022-10-16T10:56:14.375Z,1.83
2022-10-16T10:59:07.121Z,1.70
2022-10-16T11:02:15.152Z,1.83
2022-10-16T11:05:00.501Z,1.90
2022-10-16T11:07:34.035Z,1.57
2022-10-16T11:10:17.781Z,2.80
2022-10-16T11:12:50.610Z,1.80
2022-10-16T11:15:35.870Z,1.87
2022-10-16T11:18:28.397Z,2.07
2022-10-16T11:21:01.670Z,1.50
2022-10-16T11:23:44.158Z,1.70
2022-10-16T11:26:27.181Z,1.27
2022-10-16T11:28:57.285Z,1.60
2022-10-16T11:31:39.428Z,1.00
2022-10-16T11:34:30.759Z,1.57
2022-10-16T11:37:18.272Z,1.40
2022-10-16T11:39:47.342Z,1.37
2022-10-16T11:42:38.104Z,2.23
2022-10-16T11:45:07.956Z,1.47
2022-10-16T11:47:57.997Z,2.03
2022-10-16T11:50:45.342Z,1.17
2022-10-16T11:53:23.072Z,1.63
2022-10-16T11:55:50.326Z,8.40
2022-10-16T11:59:07.308Z,1.20
2022-10-16T12:02:09.574Z,1.20
2022-10-16T12:04:47.912Z,1.10
2022-10-16T12:07:27.512Z,1.13
2022-10-16T12:09:54.466Z,1.10
2022-10-16T12:12:37.202Z,2.43
2022-10-16T12:15:25.996Z,1.40
2022-10-16T12:17:57.879Z,1.47
2022-10-16T12:20:28.941Z,1.10
2022-10-16T12:23:05.304Z,0.90
2022-10-16T12:25:38.594Z,0.97
2022-10-16T12:28:22.042Z,1.20
2022-10-16T12:31:09.388Z,1.27
2022-10-16T12:34:03.585Z,1.40
2022-10-16T12:36:35.324Z,1.20
2022-10-16T12:39:02.969Z,1.33
2022-10-16T12:41:40.732Z,1.43
2022-10-16T12:44:27.306Z,1.20
2022-10-16T12:46:54.283Z,1.57
2022-10-16T12:49:33.417Z,1.20
2022-10-16T12:52:00.422Z,1.37
2022-10-16T12:54:45.621Z,1.20
2022-10-16T12:58:03.328Z,1.47
2022-10-16T13:00:47.093Z,1.50
2022-10-16T13:03:32.699Z,1.60
2022-10-16T13:06:27.017Z,1.73
2022-10-16T13:09:33.696Z,3.60
2022-10-16T13:12:19.577Z,1.60
2022-10-16T13:15:18.621Z,2.00
2022-10-16T13:18:21.491Z,1.40
2022-10-16T13:21:00.440Z,1.50
2022-10-16T13:23:53.152Z,1.70
2022-10-16T13:26:24.710Z,2.30
2022-10-16T13:28:51.726Z,1.80
2022-10-16T13:31:25.104Z,1.60
2022-10-16T13:34:00.450Z,2.17
2022-10-16T13:36:43.295Z,2.20
2022-10-16T13:39:20.200Z,1.63
2022-10-16T13:41:58.410Z,1.40
2022-10-16T13:44:25.450Z,1.90
2022-10-16T13:47:03.856Z,1.73
2022-10-16T13:49:30.790Z,2.13
2022-10-16T13:52:01.065Z,1.83
2022-10-16T13:54:29.803Z,1.80
2022-10-16T13:57:03.374Z,1.60
2022-10-16T13:59:41.293Z,2.20
2022-10-16T14:02:27.703Z,1.60
2022-10-16T14:04:55.717Z,2.00
2022-10-16T14:07:32.498Z,1.40
2022-10-16T14:10:07.035Z,2.10
2022-10-16T14:12:35.490Z,1.80
2022-10-16T14:15:03.010Z,2.00
2022-10-16T14:17:34.030Z,1.80
2022-10-16T14:20:06.928Z,1.67
2022-10-16T14:22:42.981Z,1.53
2022-10-16T14:25:22.462Z,1.57
2022-10-16T14:28:03.679Z,1.87
2022-10-16T14:30:33.677Z,2.03
2022-10-16T14:33:07.505Z,1.93
2022-10-16T14:35:38.616Z,1.90
2022-10-16T14:38:15.621Z,1.90
2022-10-16T14:40:49.230Z,1.60
2022-10-16T14:43:23.931Z,1.80
2022-10-16T14:45:57.080Z,1.70
2022-10-16T14:48:24.828Z,3.87
2022-10-16T14:50:51.755Z,1.83
2022-10-16T14:53:18.683Z,1.70
2022-10-16T14:55:46.039Z,2.37
2022-10-16T14:58:19.773Z,2.50
2022-10-16T15:00:47.410Z,1.67
2022-10-16T15:03:14.626Z,1.43
2022-10-16T15:05:41.724Z,1.50
2022-10-16T15:08:08.714Z,1.67
2022-10-16T15:10:41.944Z,1.30
2022-10-16T15:13:14.058Z,1.20
2022-10-16T15:15:50.123Z,1.13
2022-10-16T15:18:21.244Z,1.20
2022-10-16T15:20:51.030Z,1.30
2022-10-16T15:23:21.969Z,1.30
2022-10-16T15:25:55.228Z,1.20
2022-10-16T15:28:24.682Z,1.40
2022-10-16T15:30:54.489Z,1.30
2022-10-16T15:33:27.941Z,1.20
2022-10-16T15:35:55.768Z,1.50
2022-10-16T15:38:24.022Z,1.40
2022-10-16T15:40:51.752Z,2.07
2022-10-16T15:43:19.665Z,1.53
2022-10-16T15:46:02.492Z,1.70
2022-10-16T15:48:31.319Z,1.70
2022-10-16T15:50:58.335Z,1.27
2022-10-16T15:53:25.341Z,1.20
2022-10-16T15:55:52.456Z,1.20
2022-10-16T15:58:19.421Z,1.60
2022-10-16T16:00:46.846Z,1.77
2022-10-16T16:03:14.426Z,2.10
2022-10-16T16:05:45.625Z,5.47
2022-10-16T16:08:13.389Z,3.87
2022-10-16T16:10:40.277Z,3.80
2022-10-16T16:13:07.289Z,4.67
2022-10-16T16:15:34.213Z,3.60
2022-10-16T16:18:03.219Z,3.40
2022-10-16T16:20:30.192Z,4.07
2022-10-16T16:22:57.222Z,3.50
2022-10-16T16:25:24.221Z,3.30
2022-10-16T16:27:51.210Z,3.50
2022-10-16T16:30:20.532Z,2.40
2022-10-16T16:32:49.700Z,2.17
2022-10-16T16:35:16.653Z,2.50
2022-10-16T16:37:43.680Z,2.43
2022-10-16T16:40:10.694Z,2.83
2022-10-16T16:42:37.792Z,3.00
2022-10-16T16:45:05.221Z,2.60
2022-10-16T16:47:32.148Z,2.50
2022-10-16T16:49:59.069Z,1.80
2022-10-16T16:52:26.078Z,1.83
2022-10-16T16:54:53.186Z,2.10
2022-10-16T16:57:21.638Z,2.13
2022-10-16T16:59:51.434Z,1.83
2022-10-16T17:02:18.622Z,1.90
2022-10-16T17:04:45.531Z,2.20
2022-10-16T17:07:12.479Z,2.77
2022-10-16T17:09:39.378Z,7.20
2022-10-16T17:12:06.429Z,14.30
2022-10-16T17:14:33.387Z,40.50
2022-10-16T17:17:00.402Z,14.20
2022-10-16T17:19:27.322Z,7.20
2022-10-16T17:21:54.531Z,4.30
2022-10-16T17:24:21.769Z,2.47
2022-10-16T17:26:49.409Z,4.20
2022-10-16T17:29:18.703Z,6.40
2022-10-16T17:31:46.173Z,3.60
2022-10-16T17:34:13.401Z,3.90
2022-10-16T17:36:44.135Z,4.77
2022-10-16T17:39:14.271Z,5.00
2022-10-16T17:41:41.179Z,5.43
2022-10-16T17:44:08.536Z,4.50
2022-10-16T17:46:40.040Z,2.80
2022-10-16T17:49:09.783Z,3.13
2022-10-16T17:51:36.727Z,2.57
2022-10-16T17:54:04.016Z,2.10
2022-10-16T17:56:31.513Z,1.80
2022-10-16T17:59:01.685Z,1.97
2022-10-16T18:01:35.767Z,1.47
2022-10-16T18:04:13.089Z,1.50
2022-10-16T18:06:41.710Z,1.50
2022-10-16T18:09:11.126Z,2.40
2022-10-16T18:11:38.818Z,2.50
2022-10-16T18:14:06.617Z,5.70
2022-10-16T18:16:34.051Z,3.10
2022-10-16T18:19:01.002Z,2.83
2022-10-16T18:21:28.726Z,3.00
2022-10-16T18:23:57.293Z,2.10
2022-10-16T18:26:25.265Z,2.17
2022-10-16T18:28:54.742Z,2.30
2022-10-16T18:31:23.113Z,2.73
2022-10-16T18:33:51.290Z,5.10
2022-10-16T18:36:32.332Z,7.40
2022-10-16T18:39:03.199Z,6.70
2022-10-16T18:41:32.556Z,5.40
2022-10-16T18:43:59.487Z,5.27
2022-10-16T18:46:27.233Z,4.73
2022-10-16T18:48:55.864Z,5.27
2022-10-16T18:51:32.686Z,5.60
2022-10-16T18:54:06.537Z,4.87
2022-10-16T18:56:33.757Z,6.47
2022-10-16T18:59:03.271Z,3.20
2022-10-16T19:01:33.254Z,3.17
2022-10-16T19:04:05.510Z,3.13
2022-10-16T19:06:39.824Z,5.10
2022-10-16T19:09:08.022Z,5.43
2022-10-16T19:11:38.040Z,4.30
2022-10-16T19:14:08.629Z,3.53
2022-10-16T19:16:37.190Z,3.70
2022-10-16T19:19:10.073Z,4.83
2022-10-16T19:21:40.009Z,3.93
2022-10-16T19:24:08.723Z,4.20
2022-10-16T19:26:38.214Z,4.40
2022-10-16T19:29:09.165Z,3.97
2022-10-16T19:31:36.060Z,3.40
2022-10-16T19:34:04.484Z,3.50
2022-10-16T19:36:34.318Z,2.90
2022-10-16T19:39:07.657Z,3.13
2022-10-16T19:41:36.569Z,2.90
2022-10-16T19:44:07.200Z,3.43
2022-10-16T19:46:34.762Z,3.60
2022-10-16T19:49:06.754Z,3.77
2022-10-16T19:51:34.304Z,3.50
2022-10-16T19:54:04.748Z,3.80
2022-10-16T19:56:33.460Z,3.60
2022-10-16T19:59:01.568Z,4.33
2022-10-16T20:01:31.632Z,3.60
2022-10-16T20:03:59.318Z,3.77
2022-10-16T20:06:26.852Z,4.33
2022-10-16T20:08:55.417Z,4.00
2022-10-16T20:11:29.931Z,4.47
2022-10-16T20:13:57.746Z,5.90
2022-10-16T20:16:26.373Z,4.10
2022-10-16T20:18:53.528Z,4.27
2022-10-16T20:21:24.147Z,4.20
2022-10-16T20:23:51.531Z,5.07
2022-10-16T20:26:22.358Z,4.30
2022-10-16T20:28:49.617Z,4.70
2022-10-16T20:31:37.323Z,3.83
2022-10-16T20:34:11.000Z,4.30
2022-10-16T20:36:40.796Z,4.10
2022-10-16T20:39:08.828Z,3.70
2022-10-16T20:41:36.879Z,4.73
2022-10-16T20:44:04.284Z,5.80
2022-10-16T20:46:31.228Z,5.70
2022-10-16T20:49:06.261Z,4.90
2022-10-16T20:51:38.665Z,6.43
2022-10-16T20:54:07.395Z,5.50
2022-10-16T20:56:36.916Z,5.90
2022-10-16T20:59:05.286Z,5.63
2022-10-16T21:01:32.656Z,5.43
2022-10-16T21:04:02.322Z,5.10
2022-10-16T21:06:31.553Z,5.50
2022-10-16T21:09:03.234Z,5.50
2022-10-16T21:14:07.723Z,5.73
2022-10-16T21:16:35.402Z,5.80
2022-10-16T21:19:02.641Z,5.67
2022-10-16T21:21:38.023Z,6.40
2022-10-16T21:24:06.630Z,6.40
2022-10-16T21:26:33.883Z,6.90
2022-10-16T21:29:06.759Z,7.17
2022-10-16T21:31:34.849Z,6.43
2022-10-16T21:34:01.801Z,7.43
2022-10-16T21:36:32.366Z,6.93
2022-10-16T21:39:06.219Z,7.13
2022-10-16T21:41:34.218Z,6.73
2022-10-16T21:44:02.295Z,6.43
2022-10-16T21:46:34.668Z,6.77
2022-10-16T21:49:05.758Z,6.77
2022-10-16T21:51:36.976Z,6.90
2022-10-16T21:54:06.587Z,6.90
2022-10-16T21:56:33.847Z,8.03
2022-10-16T21:59:01.007Z,6.70
2022-10-16T22:01:29.148Z,7.03
2022-10-16T22:03:56.263Z,7.10
2022-10-16T22:06:27.076Z,7.60
2022-10-16T22:08:59.574Z,7.03
2022-10-16T22:11:41.546Z,6.43
2022-10-16T22:14:12.779Z,7.30
2022-10-16T22:16:40.211Z,7.50
2022-10-16T22:19:07.921Z,6.50
2022-10-16T22:21:38.059Z,6.77
2022-10-16T22:24:06.309Z,7.50
2022-10-16T22:26:34.422Z,7.90
2022-10-16T22:29:01.386Z,7.07
2022-10-16T22:31:28.372Z,7.70
2022-10-16T22:34:01.617Z,9.17
2022-10-16T22:36:29.233Z,8.13
2022-10-16T22:38:56.973Z,7.87
2022-10-16T22:41:24.906Z,7.53
2022-10-16T22:43:52.450Z,7.93
2022-10-16T22:46:26.835Z,8.10
2022-10-16T22:48:55.897Z,7.23
2022-10-16T22:51:24.033Z,8.23
2022-10-16T22:53:51.602Z,7.30
2022-10-16T22:56:21.106Z,7.47
2022-10-16T22:58:48.054Z,7.73
2022-10-16T23:01:40.453Z,7.73
2022-10-16T23:04:07.989Z,7.83
2022-10-16T23:06:35.244Z,7.90
2022-10-16T23:09:03.022Z,8.10
2022-10-16T23:11:30.876Z,8.03
2022-10-16T23:13:57.923Z,7.30
2022-10-16T23:16:25.146Z,7.33
2022-10-16T23:18:52.966Z,8.40
2022-10-16T23:21:23.602Z,8.00
2022-10-16T23:23:52.102Z,7.93
2022-10-16T23:26:23.380Z,7.90
2022-10-16T23:28:50.476Z,8.70
2022-10-16T23:31:18.815Z,8.30
2022-10-16T23:33:45.999Z,8.60
2022-10-16T23:36:17.193Z,8.50
2022-10-16T23:38:45.396Z,8.27
2022-10-16T23:41:13.264Z,8.40
2022-10-16T23:43:40.846Z,8.00
2022-10-16T23:46:10.786Z,7.43
2022-10-16T23:48:38.287Z,7.77
2022-10-16T23:51:07.524Z,7.20
2022-10-16T23:53:35.018Z,7.03
2022-10-16T23:56:02.016Z,6.33
2022-10-16T23:58:28.981Z,6.60
